MSC Maeva — H9TF — position and weather

sailwx.info

Track history (hours):
 
Tides and Currents Weather Stations Pressure Air Temp Water Temp Dewpoint Dewpoint Depression Visibility Wind Speed Wind Dir Waves Ship Positions

MSC Maeva

Last reported at 2017-Nov-16 05:06 UTC. Time now 2017-Nov-22 11:18 UTC.
Position N 35°50' W 025°39'.

Type: Ship (hazmat cat A). MMSI: 371851000.

Date/timePositionNaut miles runAvg speedWind from/ knotsBaromVisibWave heightAir tempDewpointWater temp
2017-Nov-16 05:06N 35°50' W 025°39'218.9
2017-Nov-16 05:00N 35°50' W 025°36'919.0
2017-Nov-16 04:30N 35°51' W 025°25'918.9
2017-Nov-16 04:00N 35°52' W 025°13'918.9
2017-Nov-16 03:30N 35°53' W 025°02'1018.9
2017-Nov-16 03:00N 35°53' W 024°50'918.9
2017-Nov-16 02:30N 35°54' W 024°38'1018.9
2017-Nov-16 02:00N 35°55' W 024°27'918.9
2017-Nov-16 01:30N 35°56' W 024°15'918.7
2017-Nov-16 01:00N 35°56' W 024°04'90520.4
2017-Nov-14 04:41N 36°01' W 005°26'213.8
2017-Nov-14 04:31N 36°01' W 005°23'816.5
2017-Nov-14 04:01N 36°02' W 005°13'  
2017-Nov-11 07:10N 39°05' E 002°26'213.3
2017-Nov-11 07:00N 39°04' E 002°28'714.3
2017-Nov-11 06:30N 39°02' E 002°37'914.9
2017-Nov-11 05:53N 39°00' E 002°49'715.4
2017-Nov-11 05:27N 38°58' E 002°57'715.1
2017-Nov-11 05:00N 38°57' E 003°06'52214.7
2017-Nov-09 17:27N 36°32' E 013°40'2415.0
2017-Nov-09 15:51N 36°23' E 014°08'514.9
2017-Nov-09 15:30N 36°20' E 014°14'815.1
2017-Nov-09 15:00N 36°18' E 014°22'815.1
2017-Nov-09 14:30N 36°15' E 014°31'815.1
2017-Nov-09 14:00N 36°12' E 014°40'815.3
2017-Nov-09 13:30N 36°10' E 014°49'  
Track history (hours):
 
Tides and Currents Weather Stations Pressure Air Temp Water Temp Dewpoint Dewpoint Depression Visibility Wind Speed Wind Dir Waves Ship Positions

MSC Maeva

Last reported at 2017-Nov-16 05:06 UTC. Time now 2017-Nov-22 11:18 UTC.
Position N 35°50' W 025°39'.

Type: Ship (hazmat cat A). MMSI: 371851000.

Date/timePositionNaut miles runAvg speedWind from/ knotsBaromVisibWave heightAir tempDewpointWater temp
2017-Nov-16 05:06N 35°50' W 025°39'218.9
2017-Nov-16 05:00N 35°50' W 025°36'919.0
2017-Nov-16 04:30N 35°51' W 025°25'918.9
2017-Nov-16 04:00N 35°52' W 025°13'918.9
2017-Nov-16 03:30N 35°53' W 025°02'1018.9
2017-Nov-16 03:00N 35°53' W 024°50'918.9
2017-Nov-16 02:30N 35°54' W 024°38'1018.9
2017-Nov-16 02:00N 35°55' W 024°27'918.9
2017-Nov-16 01:30N 35°56' W 024°15'918.7
2017-Nov-16 01:00N 35°56' W 024°04'90520.4
2017-Nov-14 04:41N 36°01' W 005°26'213.8
2017-Nov-14 04:31N 36°01' W 005°23'816.5
2017-Nov-14 04:01N 36°02' W 005°13'  
2017-Nov-11 07:10N 39°05' E 002°26'213.3
2017-Nov-11 07:00N 39°04' E 002°28'714.3
2017-Nov-11 06:30N 39°02' E 002°37'914.9
2017-Nov-11 05:53N 39°00' E 002°49'715.4
2017-Nov-11 05:27N 38°58' E 002°57'715.1
2017-Nov-11 05:00N 38°57' E 003°06'52214.7
2017-Nov-09 17:27N 36°32' E 013°40'2415.0
2017-Nov-09 15:51N 36°23' E 014°08'514.9
2017-Nov-09 15:30N 36°20' E 014°14'815.1
2017-Nov-09 15:00N 36°18' E 014°22'815.1
2017-Nov-09 14:30N 36°15' E 014°31'815.1
2017-Nov-09 14:00N 36°12' E 014°40'815.3
2017-Nov-09 13:30N 36°10' E 014°49'  

Dump ship's entire track history